createdAt,value
2022-09-28T00:01:07.568Z,89.91
2022-09-28T00:03:35.133Z,89.84
2022-09-28T00:06:04.217Z,90.03
2022-09-28T00:08:31.609Z,90.07
2022-09-28T00:10:58.958Z,89.68
2022-09-28T00:13:26.283Z,90.13
2022-09-28T00:16:05.390Z,89.76
2022-09-28T00:18:33.160Z,89.60
2022-09-28T00:21:10.056Z,89.90
2022-09-28T00:23:56.414Z,90.45
2022-09-28T00:26:23.915Z,90.44
2022-09-28T00:28:55.290Z,90.81
2022-09-28T00:31:25.063Z,90.77
2022-09-28T00:33:53.298Z,90.94
2022-09-28T00:36:20.667Z,90.74
2022-09-28T00:38:47.849Z,90.49
2022-09-28T00:41:15.564Z,90.54
2022-09-28T00:43:43.059Z,90.67
2022-09-28T00:46:31.396Z,90.40
2022-09-28T00:49:03.183Z,90.14
2022-09-28T00:51:30.711Z,90.46
2022-09-28T00:53:59.369Z,90.03
2022-09-28T00:56:29.328Z,90.55
2022-09-28T00:58:58.057Z,90.85
2022-09-28T01:01:25.275Z,90.69
2022-09-28T01:03:52.504Z,90.36
2022-09-28T01:06:22.710Z,90.62
2022-09-28T01:08:51.936Z,90.73
2022-09-28T01:11:22.208Z,90.35
2022-09-28T01:13:50.518Z,90.57
2022-09-28T01:16:26.418Z,90.80
2022-09-28T01:18:59.728Z,90.64
2022-09-28T01:21:27.012Z,89.74
2022-09-28T01:24:10.334Z,89.47
2022-09-28T01:26:48.423Z,88.99
2022-09-28T01:29:26.930Z,89.53
2022-09-28T01:32:18.265Z,89.82
2022-09-28T01:35:12.672Z,89.57
2022-09-28T01:37:56.964Z,89.57
2022-09-28T01:40:26.079Z,88.62
2022-09-28T01:43:04.430Z,88.85
2022-09-28T01:45:44.246Z,89.58
2022-09-28T01:48:13.252Z,89.46
2022-09-28T01:50:42.613Z,89.40
2022-09-28T01:53:14.768Z,89.25
2022-09-28T01:55:48.257Z,89.09
2022-09-28T01:58:17.688Z,89.41
2022-09-28T02:00:48.647Z,89.38
2022-09-28T02:03:19.837Z,89.43
2022-09-28T02:05:59.268Z,89.96
2022-09-28T02:08:37.183Z,89.85
2022-09-28T02:11:18.687Z,89.76
2022-09-28T02:13:56.953Z,89.98
2022-09-28T02:16:58.391Z,90.08
2022-09-28T02:19:27.582Z,90.38
2022-09-28T02:22:03.326Z,90.62
2022-09-28T02:24:39.747Z,91.47
2022-09-28T02:27:13.685Z,91.23
2022-09-28T02:29:40.843Z,91.52
2022-09-28T02:32:08.076Z,92.03
2022-09-28T02:34:36.043Z,92.78
2022-09-28T02:37:03.679Z,93.12
2022-09-28T02:39:31.607Z,92.29
2022-09-28T02:42:20.687Z,92.39
2022-09-28T02:45:03.040Z,92.46
2022-09-28T02:47:55.139Z,92.42
2022-09-28T02:50:52.100Z,92.65
2022-09-28T02:53:47.263Z,92.92
2022-09-28T02:56:44.106Z,92.91
2022-09-28T02:59:36.940Z,92.78
2022-09-28T03:02:18.932Z,92.43
2022-09-28T03:05:07.503Z,92.31
2022-09-28T03:07:47.904Z,92.63
2022-09-28T03:10:28.612Z,92.91
2022-09-28T03:12:56.563Z,92.64
2022-09-28T03:15:31.026Z,92.84
2022-09-28T03:17:58.776Z,92.86
2022-09-28T03:20:27.922Z,92.91
2022-09-28T03:23:22.830Z,93.10
2022-09-28T03:25:42.401Z,93.78
2022-09-28T03:28:09.564Z,93.61
2022-09-28T03:30:36.963Z,93.37
2022-09-28T03:33:04.448Z,93.04
2022-09-28T03:35:31.649Z,92.63
2022-09-28T03:37:59.054Z,91.99
2022-09-28T03:40:26.516Z,92.10
2022-09-28T03:42:54.199Z,92.15
2022-09-28T03:45:21.520Z,92.57
2022-09-28T03:47:49.106Z,92.95
2022-09-28T03:50:16.570Z,92.78
2022-09-28T03:52:43.771Z,93.16
2022-09-28T03:55:11.334Z,94.05
2022-09-28T03:57:38.787Z,93.92
2022-09-28T04:00:06.627Z,93.81
2022-09-28T04:02:35.108Z,93.29
2022-09-28T04:05:02.655Z,93.03
2022-09-28T04:07:31.197Z,93.42
2022-09-28T04:09:58.979Z,94.44
2022-09-28T04:12:26.138Z,94.06
2022-09-28T04:14:53.365Z,94.01
2022-09-28T04:17:20.538Z,93.60
2022-09-28T04:19:47.744Z,93.66
2022-09-28T04:22:15.040Z,93.85
2022-09-28T04:24:43.543Z,93.92
2022-09-28T04:27:33.727Z,94.25
2022-09-28T04:30:00.944Z,94.27
2022-09-28T04:32:28.122Z,94.14
2022-09-28T04:34:55.927Z,94.27
2022-09-28T04:37:23.111Z,93.92
2022-09-28T04:39:50.353Z,93.92
2022-09-28T04:42:17.590Z,93.96
2022-09-28T04:44:44.765Z,93.81
2022-09-28T04:47:11.982Z,93.83
2022-09-28T04:49:39.173Z,93.85
2022-09-28T04:52:06.593Z,93.88
2022-09-28T04:54:33.957Z,93.71
2022-09-28T04:57:01.887Z,93.35
2022-09-28T04:59:29.095Z,93.64
2022-09-28T05:01:56.342Z,93.78
2022-09-28T05:04:26.134Z,94.31
2022-09-28T05:06:53.572Z,94.07
2022-09-28T05:09:20.810Z,93.82
2022-09-28T05:11:50.429Z,94.52
2022-09-28T05:14:17.720Z,94.04
2022-09-28T05:16:45.532Z,93.97
2022-09-28T05:19:13.198Z,94.06
2022-09-28T05:21:45.877Z,94.22
2022-09-28T05:24:13.240Z,93.99
2022-09-28T05:26:43.934Z,93.73
2022-09-28T05:29:13.535Z,94.18
2022-09-28T05:31:40.882Z,94.11
2022-09-28T05:34:08.162Z,94.32
2022-09-28T05:36:35.864Z,94.56
2022-09-28T05:39:04.056Z,94.52
2022-09-28T05:41:33.633Z,94.45
2022-09-28T05:44:01.044Z,94.76
2022-09-28T05:46:30.284Z,94.69
2022-09-28T05:48:57.498Z,94.31
2022-09-28T05:51:25.405Z,94.39
2022-09-28T05:53:55.700Z,94.50
2022-09-28T05:56:22.995Z,94.72
2022-09-28T05:58:50.346Z,94.19
2022-09-28T06:01:17.679Z,94.37
2022-09-28T06:03:45.050Z,94.04
2022-09-28T06:06:12.245Z,94.04
2022-09-28T06:08:42.955Z,94.18
2022-09-28T06:11:12.609Z,94.03
2022-09-28T06:16:22.777Z,94.87
2022-09-28T06:18:51.312Z,94.98
2022-09-28T06:21:19.460Z,95.18
2022-09-28T06:23:49.257Z,95.44
2022-09-28T06:26:17.666Z,95.52
2022-09-28T06:28:47.516Z,95.58
2022-09-28T06:31:16.115Z,95.56
2022-09-28T06:33:43.475Z,95.24
2022-09-28T06:36:10.746Z,94.92
2022-09-28T06:38:38.408Z,95.05
2022-09-28T06:41:06.129Z,95.24
2022-09-28T06:43:35.385Z,95.51
2022-09-28T06:46:03.000Z,95.13
2022-09-28T06:48:31.370Z,95.15
2022-09-28T06:50:58.589Z,94.74
2022-09-28T06:53:27.281Z,94.44
2022-09-28T06:55:55.163Z,93.46
2022-09-28T06:58:23.115Z,92.71
2022-09-28T07:00:53.406Z,92.55
2022-09-28T07:03:22.215Z,92.13
2022-09-28T07:05:51.491Z,91.23
2022-09-28T07:08:19.686Z,90.43
2022-09-28T07:10:48.805Z,90.47
2022-09-28T07:13:44.204Z,90.97
2022-09-28T07:16:04.564Z,90.26
2022-09-28T07:18:32.026Z,89.49
2022-09-28T07:20:59.916Z,88.30
2022-09-28T07:23:29.575Z,88.95
2022-09-28T07:25:58.192Z,87.71
2022-09-28T07:28:25.929Z,87.95
2022-09-28T07:30:53.498Z,87.95
2022-09-28T07:33:20.794Z,87.05
2022-09-28T07:35:52.630Z,86.33
2022-09-28T07:38:21.210Z,86.96
2022-09-28T07:41:06.951Z,87.37
2022-09-28T07:43:34.187Z,86.56
2022-09-28T07:46:02.665Z,87.24
2022-09-28T07:48:38.011Z,87.11
2022-09-28T07:51:05.942Z,86.93
2022-09-28T07:53:33.427Z,86.90
2022-09-28T07:56:17.266Z,86.44
2022-09-28T07:58:44.634Z,86.16
2022-09-28T08:01:15.013Z,86.33
2022-09-28T08:03:45.213Z,86.03
2022-09-28T08:06:14.510Z,84.93
2022-09-28T08:08:44.838Z,84.97
2022-09-28T08:11:16.842Z,85.51
2022-09-28T08:13:45.598Z,85.39
2022-09-28T08:16:13.121Z,84.97
2022-09-28T08:18:40.536Z,85.05
2022-09-28T08:21:29.588Z,84.53
2022-09-28T08:23:57.089Z,84.46
2022-09-28T08:26:29.171Z,83.71
2022-09-28T08:28:56.385Z,83.46
2022-09-28T08:31:23.942Z,84.06
2022-09-28T08:33:54.492Z,83.58
2022-09-28T08:36:21.896Z,83.60
2022-09-28T08:38:49.248Z,82.28
2022-09-28T08:41:35.939Z,82.70
2022-09-28T08:44:15.138Z,82.12
2022-09-28T08:46:43.746Z,81.53
2022-09-28T08:49:30.059Z,81.24
2022-09-28T08:52:23.358Z,79.76
2022-09-28T08:55:05.742Z,79.77
2022-09-28T08:57:44.348Z,79.54
2022-09-28T09:00:30.962Z,79.56
2022-09-28T09:02:58.647Z,81.10
2022-09-28T09:05:47.849Z,78.25
2022-09-28T09:08:33.992Z,74.97
2022-09-28T09:11:16.157Z,76.79
2022-09-28T09:14:14.590Z,76.00
2022-09-28T09:17:00.397Z,74.71
2022-09-28T09:19:41.160Z,76.40
2022-09-28T09:22:21.863Z,76.03
2022-09-28T09:24:52.198Z,77.27
2022-09-28T09:27:19.331Z,75.62
2022-09-28T09:29:59.490Z,76.37
2022-09-28T09:32:48.338Z,75.92
2022-09-28T09:35:43.146Z,75.17
2022-09-28T09:38:16.809Z,75.47
2022-09-28T09:41:09.174Z,74.83
2022-09-28T09:44:05.321Z,75.50
2022-09-28T09:46:35.020Z,73.54
2022-09-28T09:49:08.890Z,74.68
2022-09-28T09:51:47.258Z,75.41
2022-09-28T09:54:27.395Z,75.87
2022-09-28T09:56:59.239Z,76.31
2022-09-28T09:59:33.709Z,75.83
2022-09-28T10:02:12.963Z,74.79
2022-09-28T10:04:41.414Z,76.07
2022-09-28T10:07:13.482Z,77.36
2022-09-28T10:09:46.781Z,76.89
2022-09-28T10:12:19.574Z,78.09
2022-09-28T10:14:46.922Z,77.46
2022-09-28T10:17:19.920Z,77.90
2022-09-28T10:19:47.322Z,79.49
2022-09-28T10:22:18.282Z,80.44
2022-09-28T10:24:47.652Z,81.42
2022-09-28T10:27:21.296Z,80.45
2022-09-28T10:29:54.555Z,81.64
2022-09-28T10:32:38.068Z,81.89
2022-09-28T10:35:31.305Z,82.72
2022-09-28T10:38:07.989Z,82.10
2022-09-28T10:40:40.117Z,82.63
2022-09-28T10:43:26.461Z,83.04
2022-09-28T10:46:14.984Z,83.18
2022-09-28T10:48:58.893Z,83.52
2022-09-28T10:51:47.220Z,83.04
2022-09-28T10:54:20.421Z,83.47
2022-09-28T10:56:48.538Z,84.29
2022-09-28T10:59:30.887Z,85.07
2022-09-28T11:02:19.818Z,85.70
2022-09-28T11:04:53.310Z,83.93
2022-09-28T11:07:28.657Z,84.88
2022-09-28T11:09:56.235Z,84.51
2022-09-28T11:12:26.181Z,86.08
2022-09-28T11:15:01.560Z,86.64
2022-09-28T11:17:34.128Z,87.79
2022-09-28T11:20:26.105Z,85.33
2022-09-28T11:23:18.133Z,85.25
2022-09-28T11:26:00.163Z,85.17
2022-09-28T11:28:32.763Z,86.80
2022-09-28T11:31:01.441Z,85.76
2022-09-28T11:33:43.048Z,87.27
2022-09-28T11:36:43.231Z,86.82
2022-09-28T11:39:34.266Z,86.53
2022-09-28T11:42:26.395Z,85.72
2022-09-28T11:45:11.411Z,86.26
2022-09-28T11:47:50.556Z,85.82
2022-09-28T11:50:28.921Z,85.18
2022-09-28T11:53:04.616Z,86.17
2022-09-28T11:55:42.422Z,86.21
2022-09-28T11:58:15.418Z,85.42
2022-09-28T12:00:50.455Z,86.38
2022-09-28T12:03:42.304Z,86.30
2022-09-28T12:06:16.834Z,83.75
2022-09-28T12:09:11.217Z,83.41
2022-09-28T12:11:43.517Z,84.77
2022-09-28T12:14:23.496Z,83.87
2022-09-28T12:17:07.927Z,82.38
2022-09-28T12:19:45.284Z,83.57
2022-09-28T12:22:24.454Z,82.59
2022-09-28T12:24:54.505Z,83.68
2022-09-28T12:27:26.951Z,81.88
2022-09-28T12:30:04.802Z,83.11
2022-09-28T12:32:44.202Z,81.46
2022-09-28T12:35:33.577Z,81.81
2022-09-28T12:38:11.352Z,80.33
2022-09-28T12:40:51.053Z,81.68
2022-09-28T12:43:33.774Z,80.91
2022-09-28T12:46:32.787Z,79.53
2022-09-28T12:52:28.458Z,80.93
2022-09-28T12:58:00.923Z,81.04
2022-09-28T13:01:03.312Z,80.54
2022-09-28T13:03:35.089Z,79.62
2022-09-28T13:06:37.904Z,78.08
2022-09-28T13:09:20.322Z,80.05
2022-09-28T13:12:05.423Z,78.96
2022-09-28T13:15:12.736Z,80.11
2022-09-28T13:17:52.892Z,79.99
2022-09-28T13:20:23.265Z,81.15
2022-09-28T13:23:16.985Z,81.87
2022-09-28T13:26:04.965Z,82.30
2022-09-28T13:28:32.832Z,82.40
2022-09-28T13:31:02.134Z,83.07
2022-09-28T13:33:30.808Z,80.11
2022-09-28T13:35:58.088Z,78.66
2022-09-28T13:38:29.760Z,80.81
2022-09-28T13:41:06.809Z,81.56
2022-09-28T13:43:55.754Z,81.15
2022-09-28T13:46:38.251Z,79.57
2022-09-28T13:49:11.310Z,80.53
2022-09-28T13:51:44.102Z,80.19
2022-09-28T13:54:40.846Z,80.50
2022-09-28T13:57:21.265Z,78.80
2022-09-28T13:59:58.211Z,79.22
2022-09-28T14:02:33.321Z,78.81
2022-09-28T14:05:25.747Z,77.88
2022-09-28T14:08:06.761Z,79.74
2022-09-28T14:10:56.816Z,79.42
2022-09-28T14:13:48.938Z,79.75
2022-09-28T14:16:19.437Z,77.25
2022-09-28T14:18:54.775Z,78.72
2022-09-28T14:21:47.309Z,77.68
2022-09-28T14:24:31.944Z,78.09
2022-09-28T14:27:36.643Z,78.80
2022-09-28T14:30:25.706Z,78.20
2022-09-28T14:32:59.718Z,78.16
2022-09-28T14:35:34.372Z,79.04
2022-09-28T14:38:38.735Z,78.73
2022-09-28T14:41:11.073Z,78.84
2022-09-28T14:43:59.935Z,79.13
2022-09-28T14:46:35.682Z,80.23
2022-09-28T14:49:26.206Z,79.91
2022-09-28T14:51:56.471Z,81.46
2022-09-28T14:54:45.262Z,80.66
2022-09-28T14:57:24.103Z,78.57
2022-09-28T14:59:51.549Z,79.91
2022-09-28T15:02:31.710Z,78.95
2022-09-28T15:05:31.153Z,78.26
2022-09-28T15:07:58.590Z,80.63
2022-09-28T15:10:27.882Z,81.82
2022-09-28T15:12:57.071Z,82.08
2022-09-28T15:15:39.063Z,82.19
2022-09-28T15:18:25.560Z,81.72
2022-09-28T15:20:52.829Z,81.44
2022-09-28T15:23:28.699Z,81.51
2022-09-28T15:25:56.473Z,81.36
2022-09-28T15:28:25.272Z,80.21
2022-09-28T15:30:59.047Z,79.67
2022-09-28T15:33:49.418Z,78.84
2022-09-28T15:36:24.388Z,78.77
2022-09-28T15:39:13.570Z,78.68
2022-09-28T15:41:41.796Z,78.72
2022-09-28T15:44:23.476Z,78.99
2022-09-28T15:46:52.076Z,80.22
2022-09-28T15:49:46.703Z,79.63
2022-09-28T15:52:25.794Z,80.98
2022-09-28T15:54:55.206Z,81.31
2022-09-28T15:57:36.988Z,82.24
2022-09-28T16:00:25.932Z,83.10
2022-09-28T16:03:24.283Z,82.23
2022-09-28T16:06:05.733Z,82.24
2022-09-28T16:08:44.074Z,82.77
2022-09-28T16:11:26.196Z,83.12
2022-09-28T16:13:56.788Z,83.06
2022-09-28T16:16:30.554Z,82.65
2022-09-28T16:19:00.617Z,82.09
2022-09-28T16:21:44.347Z,82.24
2022-09-28T16:24:28.297Z,83.57
2022-09-28T16:27:20.073Z,83.23
2022-09-28T16:30:24.278Z,83.74
2022-09-28T16:32:56.995Z,82.30
2022-09-28T16:35:27.030Z,84.16
2022-09-28T16:38:23.892Z,83.65
2022-09-28T16:40:53.821Z,83.76
2022-09-28T16:43:31.740Z,84.45
2022-09-28T16:46:12.797Z,84.38
2022-09-28T16:48:48.602Z,84.60
2022-09-28T16:51:24.946Z,84.13
2022-09-28T16:54:10.663Z,83.70
2022-09-28T16:56:38.028Z,84.52
2022-09-28T16:59:05.553Z,85.10
2022-09-28T17:01:42.333Z,84.61
2022-09-28T17:04:09.793Z,85.20
2022-09-28T17:06:40.284Z,85.21
2022-09-28T17:09:08.634Z,85.15
2022-09-28T17:11:35.904Z,85.43
2022-09-28T17:14:03.545Z,86.83
2022-09-28T17:16:59.895Z,86.24
2022-09-28T17:19:22.932Z,85.08
2022-09-28T17:21:51.208Z,85.34
2022-09-28T17:24:19.307Z,84.84
2022-09-28T17:26:47.376Z,85.27
2022-09-28T17:29:15.119Z,85.65
2022-09-28T17:31:46.393Z,85.18
2022-09-28T17:34:16.007Z,86.16
2022-09-28T17:36:44.236Z,86.00
2022-09-28T17:39:13.517Z,86.23
2022-09-28T17:41:41.148Z,86.18
2022-09-28T17:44:08.809Z,87.81
2022-09-28T17:46:39.417Z,87.58
2022-09-28T17:49:07.944Z,87.49
2022-09-28T17:51:37.739Z,88.51
2022-09-28T17:54:07.049Z,88.07
2022-09-28T17:56:34.367Z,87.78
2022-09-28T17:59:06.624Z,86.97
2022-09-28T18:01:35.007Z,87.46
2022-09-28T18:04:04.969Z,88.11
2022-09-28T18:06:33.935Z,88.68
2022-09-28T18:09:03.115Z,88.65
2022-09-28T18:11:31.400Z,87.25
2022-09-28T18:14:02.041Z,86.48
2022-09-28T18:16:29.433Z,85.52
2022-09-28T18:18:56.710Z,86.28
2022-09-28T18:21:24.032Z,87.56
2022-09-28T18:23:51.417Z,87.92
2022-09-28T18:26:21.457Z,88.17
2022-09-28T18:28:48.733Z,88.80
2022-09-28T18:31:22.065Z,88.80
2022-09-28T18:36:35.832Z,87.70
2022-09-28T18:39:03.411Z,87.88
2022-09-28T18:41:30.631Z,86.52
2022-09-28T18:44:02.252Z,87.45
2022-09-28T18:46:31.146Z,88.44
2022-09-28T18:48:58.353Z,88.57
2022-09-28T18:51:26.445Z,87.41
2022-09-28T18:53:53.921Z,87.81
2022-09-28T18:56:21.690Z,88.40
2022-09-28T18:58:53.237Z,88.41
2022-09-28T19:01:30.749Z,87.64
2022-09-28T19:04:03.224Z,88.43
2022-09-28T19:06:31.734Z,89.45
2022-09-28T19:09:01.865Z,89.13
2022-09-28T19:11:29.892Z,90.41
2022-09-28T19:13:58.437Z,90.34
2022-09-28T19:16:28.751Z,89.88
2022-09-28T19:19:02.723Z,90.67
2022-09-28T19:21:31.537Z,90.92
2022-09-28T19:24:02.863Z,90.76
2022-09-28T19:26:32.992Z,91.92
2022-09-28T19:29:02.183Z,91.85
2022-09-28T19:31:33.828Z,91.75
2022-09-28T19:34:02.845Z,92.47
2022-09-28T19:36:30.137Z,92.13
2022-09-28T19:39:02.932Z,91.54
2022-09-28T19:41:43.677Z,92.00
2022-09-28T19:44:24.877Z,92.29
2022-09-28T19:46:55.160Z,92.31
2022-09-28T19:49:23.584Z,92.72
2022-09-28T19:52:14.646Z,92.93
2022-09-28T19:54:57.152Z,92.90
2022-09-28T19:57:27.903Z,92.99
2022-09-28T20:00:00.854Z,93.01
2022-09-28T20:02:32.648Z,93.76
2022-09-28T20:05:00.192Z,94.50
2022-09-28T20:07:32.699Z,94.02
2022-09-28T20:10:01.407Z,93.78
2022-09-28T20:12:28.846Z,93.11
2022-09-28T20:14:56.281Z,93.21
2022-09-28T20:17:24.652Z,93.20
2022-09-28T20:19:51.902Z,93.49
2022-09-28T20:22:20.039Z,92.95
2022-09-28T20:24:47.367Z,93.11
2022-09-28T20:27:14.678Z,92.87
2022-09-28T20:29:43.068Z,93.00
2022-09-28T20:32:11.658Z,92.79
2022-09-28T20:34:39.052Z,92.95
2022-09-28T20:37:06.886Z,93.11
2022-09-28T20:39:34.724Z,92.91
2022-09-28T20:42:02.866Z,93.12
2022-09-28T20:44:30.207Z,92.27
2022-09-28T20:46:57.472Z,91.55
2022-09-28T20:49:24.705Z,91.19
2022-09-28T20:51:52.490Z,91.07
2022-09-28T20:54:21.317Z,91.21
2022-09-28T20:56:48.670Z,91.17
2022-09-28T20:59:16.438Z,91.45
2022-09-28T21:01:44.098Z,90.77
2022-09-28T21:04:11.463Z,90.47
2022-09-28T21:06:41.046Z,91.06
2022-09-28T21:09:09.360Z,90.88
2022-09-28T21:11:37.124Z,90.70
2022-09-28T21:14:06.584Z,91.54
2022-09-28T21:16:35.858Z,90.85
2022-09-28T21:19:03.854Z,91.55
2022-09-28T21:21:31.146Z,90.97
2022-09-28T21:23:58.933Z,91.61
2022-09-28T21:26:28.318Z,91.75
2022-09-28T21:28:56.448Z,91.21
2022-09-28T21:31:29.306Z,91.50
2022-09-28T21:33:57.299Z,91.47
2022-09-28T21:36:25.042Z,91.51
2022-09-28T21:38:53.651Z,91.62
2022-09-28T21:41:20.926Z,90.69
2022-09-28T21:43:48.154Z,90.89
2022-09-28T21:46:15.586Z,90.72
2022-09-28T21:48:42.829Z,90.33
2022-09-28T21:51:13.967Z,90.67
2022-09-28T21:53:41.155Z,90.77
2022-09-28T21:56:10.908Z,91.17
2022-09-28T21:58:43.367Z,91.06
2022-09-28T22:01:17.960Z,90.32
2022-09-28T22:03:50.547Z,89.98
2022-09-28T22:06:19.889Z,91.01
2022-09-28T22:08:47.133Z,91.62
2022-09-28T22:11:16.404Z,91.79
2022-09-28T22:13:55.990Z,91.64
2022-09-28T22:16:25.318Z,92.34
2022-09-28T22:18:52.522Z,91.91
2022-09-28T22:21:24.706Z,91.48
2022-09-28T22:23:51.980Z,91.62
2022-09-28T22:26:21.593Z,92.02
2022-09-28T22:28:57.208Z,92.60
2022-09-28T22:31:26.923Z,92.84
2022-09-28T22:33:54.375Z,92.36
2022-09-28T22:36:21.684Z,92.60
2022-09-28T22:39:00.349Z,92.90
2022-09-28T22:41:27.565Z,92.88
2022-09-28T22:43:56.055Z,93.41
2022-09-28T22:46:27.884Z,92.96
2022-09-28T22:48:57.654Z,93.26
2022-09-28T22:51:29.007Z,93.72
2022-09-28T22:53:57.032Z,93.91
2022-09-28T22:56:26.275Z,93.87
2022-09-28T22:58:53.480Z,93.84
2022-09-28T23:01:23.295Z,93.90
2022-09-28T23:03:51.614Z,93.56
2022-09-28T23:06:20.971Z,93.66
2022-09-28T23:08:48.484Z,93.53
2022-09-28T23:11:16.306Z,93.33
2022-09-28T23:13:48.009Z,94.08
2022-09-28T23:16:15.212Z,93.90
2022-09-28T23:18:43.778Z,93.67
2022-09-28T23:21:16.367Z,93.81
2022-09-28T23:23:44.363Z,93.59
2022-09-28T23:26:19.851Z,93.89
2022-09-28T23:28:47.260Z,94.18
2022-09-28T23:31:23.263Z,94.47
2022-09-28T23:33:50.731Z,94.26
2022-09-28T23:36:18.054Z,93.91
2022-09-28T23:38:45.211Z,93.98
2022-09-28T23:41:12.389Z,93.59
2022-09-28T23:43:39.693Z,93.58
2022-09-28T23:46:07.189Z,93.52
2022-09-28T23:48:34.949Z,93.36
2022-09-28T23:51:02.417Z,93.08
2022-09-28T23:53:30.113Z,93.09
2022-09-28T23:55:57.450Z,92.45
2022-09-28T23:58:25.710Z,92.98
